createdAt,value
2022-09-15T00:02:20.344Z,14.90
2022-09-15T00:04:47.478Z,15.31
2022-09-15T00:07:14.509Z,15.67
2022-09-15T00:09:41.490Z,15.67
2022-09-15T00:12:08.502Z,15.48
2022-09-15T00:14:35.505Z,15.18
2022-09-15T00:17:02.451Z,15.02
2022-09-15T00:19:29.595Z,15.34
2022-09-15T00:21:56.542Z,15.63
2022-09-15T00:24:23.517Z,15.65
2022-09-15T00:26:50.529Z,15.51
2022-09-15T00:29:17.670Z,15.30
2022-09-15T00:31:44.633Z,15.15
2022-09-15T00:34:12.697Z,15.56
2022-09-15T00:36:40.054Z,16.02
2022-09-15T00:39:07.192Z,15.98
2022-09-15T00:41:34.277Z,15.72
2022-09-15T00:44:04.315Z,15.49
2022-09-15T00:46:33.779Z,15.20
2022-09-15T00:49:08.039Z,15.01
2022-09-15T00:52:07.185Z,15.34
2022-09-15T00:54:44.579Z,15.58
2022-09-15T00:57:16.213Z,15.35
2022-09-15T00:59:43.402Z,15.16
2022-09-15T01:02:15.683Z,15.02
2022-09-15T01:04:43.057Z,14.81
2022-09-15T01:07:12.966Z,15.20
2022-09-15T01:09:45.703Z,15.59
2022-09-15T01:12:12.751Z,15.52
2022-09-15T01:14:39.732Z,15.25
2022-09-15T01:17:29.483Z,14.96
2022-09-15T01:20:38.739Z,14.76
2022-09-15T01:23:37.320Z,15.28
2022-09-15T01:26:19.729Z,15.30
2022-09-15T01:29:08.713Z,15.10
2022-09-15T01:32:00.253Z,14.81
2022-09-15T01:34:27.272Z,14.77
2022-09-15T01:36:55.985Z,15.29
2022-09-15T01:39:28.511Z,15.52
2022-09-15T01:42:00.258Z,15.32
2022-09-15T01:44:36.737Z,15.15
2022-09-15T01:47:06.641Z,14.93
2022-09-15T01:49:40.346Z,14.81
2022-09-15T01:52:07.642Z,15.24
2022-09-15T01:54:40.689Z,15.45
2022-09-15T01:57:07.610Z,15.27
2022-09-15T01:59:34.506Z,15.04
2022-09-15T02:02:07.197Z,14.79
2022-09-15T02:04:44.885Z,14.97
2022-09-15T02:07:38.622Z,15.14
2022-09-15T02:10:11.692Z,14.92
2022-09-15T02:12:53.508Z,14.61
2022-09-15T02:15:36.126Z,14.62
2022-09-15T02:18:04.291Z,15.06
2022-09-15T02:20:39.821Z,15.10
2022-09-15T02:23:10.292Z,14.90
2022-09-15T02:25:46.154Z,14.62
2022-09-15T02:28:13.782Z,14.73
2022-09-15T02:30:42.141Z,15.02
2022-09-15T02:33:12.252Z,15.06
2022-09-15T02:35:39.515Z,14.90
2022-09-15T02:38:07.626Z,14.59
2022-09-15T02:40:35.348Z,14.73
2022-09-15T02:43:05.566Z,14.93
2022-09-15T02:45:32.676Z,14.78
2022-09-15T02:47:59.983Z,14.64
2022-09-15T02:50:27.236Z,14.61
2022-09-15T02:52:57.574Z,14.94
2022-09-15T02:55:27.683Z,14.99
2022-09-15T02:57:56.238Z,14.90
2022-09-15T03:00:23.224Z,14.71
2022-09-15T03:02:51.818Z,14.54
2022-09-15T03:05:29.500Z,14.83
2022-09-15T03:07:56.667Z,15.02
2022-09-15T03:10:24.712Z,14.91
2022-09-15T03:12:53.224Z,14.75
2022-09-15T03:15:22.502Z,14.66
2022-09-15T03:17:49.852Z,15.13
2022-09-15T03:20:19.060Z,15.41
2022-09-15T03:22:46.095Z,15.42
2022-09-15T03:25:13.767Z,15.31
2022-09-15T03:27:41.006Z,15.08
2022-09-15T03:30:08.877Z,14.87
2022-09-15T03:32:36.273Z,15.26
2022-09-15T03:35:04.429Z,15.52
2022-09-15T03:37:31.511Z,15.51
2022-09-15T03:39:58.575Z,15.26
2022-09-15T03:42:25.958Z,14.90
2022-09-15T03:44:53.220Z,14.75
2022-09-15T03:47:20.187Z,15.14
2022-09-15T03:49:47.873Z,15.35
2022-09-15T03:52:14.965Z,15.36
2022-09-15T03:54:42.189Z,15.18
2022-09-15T03:57:09.191Z,15.03
2022-09-15T03:59:36.315Z,15.45
2022-09-15T04:02:03.615Z,15.94
2022-09-15T04:04:31.736Z,15.95
2022-09-15T04:06:58.888Z,15.73
2022-09-15T04:09:26.145Z,15.44
2022-09-15T04:11:53.290Z,15.16
2022-09-15T04:14:20.442Z,15.36
2022-09-15T04:16:47.653Z,15.50
2022-09-15T04:19:15.190Z,15.38
2022-09-15T04:21:42.606Z,15.12
2022-09-15T04:24:09.756Z,14.86
2022-09-15T04:26:37.055Z,14.87
2022-09-15T04:29:05.669Z,15.32
2022-09-15T04:31:33.403Z,15.49
2022-09-15T04:34:00.649Z,15.31
2022-09-15T04:36:28.641Z,14.96
2022-09-15T04:38:56.558Z,14.80
2022-09-15T04:41:24.104Z,15.26
2022-09-15T04:43:51.666Z,15.67
2022-09-15T04:46:18.967Z,15.68
2022-09-15T04:48:46.488Z,15.50
2022-09-15T04:51:15.572Z,15.25
2022-09-15T04:53:43.437Z,15.07
2022-09-15T04:56:15.799Z,15.52
2022-09-15T04:58:47.670Z,15.89
2022-09-15T05:01:20.022Z,15.78
2022-09-15T05:03:47.395Z,15.47
2022-09-15T05:06:16.680Z,15.33
2022-09-15T05:08:46.821Z,15.61
2022-09-15T05:11:14.272Z,15.95
2022-09-15T05:13:41.624Z,15.93
2022-09-15T05:16:12.253Z,15.78
2022-09-15T05:18:40.328Z,15.53
2022-09-15T05:21:08.008Z,15.78
2022-09-15T05:23:35.652Z,16.06
2022-09-15T05:26:05.332Z,16.05
2022-09-15T05:28:33.479Z,15.83
2022-09-15T05:31:00.606Z,15.54
2022-09-15T05:33:27.684Z,15.87
2022-09-15T05:35:57.213Z,16.16
2022-09-15T05:38:24.888Z,16.17
2022-09-15T05:40:52.058Z,15.87
2022-09-15T05:43:19.200Z,15.71
2022-09-15T05:45:54.745Z,15.98
2022-09-15T05:48:22.119Z,16.29
2022-09-15T05:50:50.378Z,16.19
2022-09-15T05:53:17.585Z,15.88
2022-09-15T05:55:44.678Z,15.71
2022-09-15T05:58:11.803Z,16.08
2022-09-15T06:00:39.088Z,16.31
2022-09-15T06:03:06.289Z,16.24
2022-09-15T06:05:33.256Z,16.10
2022-09-15T06:08:00.424Z,16.10
2022-09-15T06:10:27.631Z,16.58
2022-09-15T06:12:54.937Z,16.99
2022-09-15T06:15:23.002Z,17.03
2022-09-15T06:17:49.976Z,16.89
2022-09-15T06:20:17.725Z,16.71
2022-09-15T06:22:47.705Z,16.58
2022-09-15T06:25:15.324Z,17.07
2022-09-15T06:27:42.546Z,17.41
2022-09-15T06:30:10.405Z,17.27
2022-09-15T06:32:37.350Z,17.08
2022-09-15T06:35:07.364Z,16.83
2022-09-15T06:37:34.945Z,16.68
2022-09-15T06:40:02.449Z,17.07
2022-09-15T06:42:29.615Z,17.38
2022-09-15T06:44:57.193Z,17.17
2022-09-15T06:47:24.174Z,16.81
2022-09-15T06:49:53.355Z,16.32
2022-09-15T06:52:20.488Z,16.24
2022-09-15T06:54:47.742Z,16.57
2022-09-15T06:57:14.895Z,16.61
2022-09-15T06:59:42.858Z,16.44
2022-09-15T07:02:10.121Z,16.31
2022-09-15T07:04:37.268Z,16.35
2022-09-15T07:07:04.756Z,16.97
2022-09-15T07:09:32.072Z,17.47
2022-09-15T07:11:59.202Z,17.43
2022-09-15T07:14:26.283Z,16.96
2022-09-15T07:16:53.530Z,16.85
2022-09-15T07:19:20.526Z,16.68
2022-09-15T07:21:47.617Z,16.97
2022-09-15T07:24:14.815Z,17.19
2022-09-15T07:26:42.331Z,16.98
2022-09-15T07:29:09.988Z,16.98
2022-09-15T07:31:38.358Z,16.95
2022-09-15T07:34:05.935Z,17.32
2022-09-15T07:36:33.183Z,17.68
2022-09-15T07:39:00.335Z,17.53
2022-09-15T07:41:29.252Z,17.51
2022-09-15T07:43:57.930Z,17.32
2022-09-15T07:46:26.037Z,17.31
2022-09-15T07:48:56.594Z,17.78
2022-09-15T07:51:24.269Z,17.83
2022-09-15T07:53:51.700Z,17.69
2022-09-15T07:56:18.952Z,17.31
2022-09-15T07:58:49.421Z,17.59
2022-09-15T08:01:17.142Z,17.54
2022-09-15T08:03:46.505Z,17.32
2022-09-15T08:06:13.751Z,17.25
2022-09-15T08:08:41.280Z,17.06
2022-09-15T08:11:09.199Z,17.16
2022-09-15T08:13:36.508Z,17.58
2022-09-15T08:16:30.246Z,17.75
2022-09-15T08:18:57.536Z,17.71
2022-09-15T08:21:24.587Z,17.64
2022-09-15T08:23:56.334Z,18.19
2022-09-15T08:26:24.211Z,18.71
2022-09-15T08:28:51.304Z,18.64
2022-09-15T08:31:18.535Z,18.54
2022-09-15T08:33:50.163Z,18.55
2022-09-15T08:36:17.408Z,18.64
2022-09-15T08:38:45.089Z,18.62
2022-09-15T08:41:17.843Z,19.28
2022-09-15T08:44:09.988Z,19.34
2022-09-15T08:46:42.548Z,19.25
2022-09-15T08:49:30.775Z,19.11
2022-09-15T08:52:30.119Z,18.77
2022-09-15T08:54:58.618Z,18.50
2022-09-15T08:57:26.467Z,18.83
2022-09-15T08:59:54.920Z,18.90
2022-09-15T09:02:31.295Z,18.87
2022-09-15T09:05:19.917Z,18.66
2022-09-15T09:08:00.524Z,18.45
2022-09-15T09:10:39.766Z,19.28
2022-09-15T09:13:18.968Z,19.87
2022-09-15T09:16:01.340Z,19.79
2022-09-15T09:18:34.447Z,19.56
2022-09-15T09:21:26.933Z,19.51
2022-09-15T09:24:17.430Z,19.35
2022-09-15T09:26:46.423Z,19.00
2022-09-15T09:29:20.834Z,19.37
2022-09-15T09:31:49.362Z,19.53
2022-09-15T09:34:27.949Z,19.46
2022-09-15T09:36:59.190Z,19.10
2022-09-15T09:39:27.877Z,18.53
2022-09-15T09:41:55.438Z,18.46
2022-09-15T09:44:32.125Z,18.72
2022-09-15T09:47:00.079Z,18.71
2022-09-15T09:49:42.887Z,18.57
2022-09-15T09:52:09.877Z,18.44
2022-09-15T09:54:37.089Z,18.63
2022-09-15T09:57:13.342Z,19.24
2022-09-15T09:59:45.321Z,19.28
2022-09-15T10:02:12.421Z,19.01
2022-09-15T10:04:44.282Z,18.76
2022-09-15T10:07:11.916Z,18.62
2022-09-15T10:09:39.175Z,18.86
2022-09-15T10:12:06.501Z,18.83
2022-09-15T10:14:33.654Z,18.95
2022-09-15T10:17:17.279Z,18.90
2022-09-15T10:19:47.298Z,18.65
2022-09-15T10:22:34.932Z,18.44
2022-09-15T10:25:18.568Z,18.77
2022-09-15T10:27:45.715Z,18.85
2022-09-15T10:30:12.815Z,19.06
2022-09-15T10:32:40.133Z,19.14
2022-09-15T10:35:11.573Z,18.98
2022-09-15T10:38:00.018Z,18.95
2022-09-15T10:40:48.790Z,19.22
2022-09-15T10:43:44.696Z,19.54
2022-09-15T10:46:24.336Z,19.53
2022-09-15T10:48:58.374Z,19.49
2022-09-15T10:52:00.632Z,19.54
2022-09-15T10:54:36.924Z,20.17
2022-09-15T10:57:12.024Z,20.53
2022-09-15T11:00:00.812Z,20.22
2022-09-15T11:02:54.038Z,19.52
2022-09-15T11:05:49.051Z,19.03
2022-09-15T11:08:19.267Z,18.80
2022-09-15T11:11:04.644Z,19.12
2022-09-15T11:13:44.697Z,18.99
2022-09-15T11:16:44.135Z,18.86
2022-09-15T11:25:29.917Z,18.36
2022-09-15T11:27:59.458Z,18.98
2022-09-15T11:30:33.400Z,19.19
2022-09-15T11:33:07.179Z,19.02
2022-09-15T11:35:37.304Z,18.81
2022-09-15T11:39:56.862Z,18.82
2022-09-15T12:07:39.914Z,17.61
2022-09-15T12:10:30.920Z,18.45
2022-09-15T12:12:59.426Z,18.89
2022-09-15T12:15:26.848Z,19.05
2022-09-15T12:18:37.091Z,19.09
2022-09-15T12:21:35.380Z,19.11
2022-09-15T12:24:17.800Z,19.65
2022-09-15T12:26:46.122Z,19.86
2022-09-15T12:29:25.422Z,19.99
2022-09-15T12:32:21.851Z,19.98
2022-09-15T12:34:59.245Z,19.93
2022-09-15T12:37:35.908Z,20.33
2022-09-15T12:40:06.235Z,20.46
2022-09-15T12:42:34.728Z,20.38
2022-09-15T12:45:20.719Z,20.56
2022-09-15T12:47:49.854Z,20.85
2022-09-15T12:50:16.660Z,21.20
2022-09-15T12:53:02.972Z,21.48
2022-09-15T12:55:34.026Z,21.67
2022-09-15T12:58:08.919Z,21.83
2022-09-15T13:01:06.847Z,21.84
2022-09-15T13:03:30.049Z,21.71
2022-09-15T13:06:24.150Z,22.20
2022-09-15T13:08:52.208Z,22.54
2022-09-15T13:11:28.809Z,22.36
2022-09-15T13:14:08.326Z,21.88
2022-09-15T13:16:41.512Z,21.45
2022-09-15T13:19:14.614Z,21.23
2022-09-15T13:21:43.687Z,20.94
2022-09-15T13:24:24.254Z,20.76
2022-09-15T13:26:52.939Z,21.15
2022-09-15T13:29:19.993Z,21.19
2022-09-15T13:31:59.557Z,21.11
2022-09-15T13:35:09.063Z,20.94
2022-09-15T13:38:12.649Z,20.84
2022-09-15T13:40:38.721Z,20.83
2022-09-15T13:43:40.122Z,20.86
2022-09-15T13:46:27.639Z,21.24
2022-09-15T13:49:30.061Z,21.33
2022-09-15T13:52:15.992Z,21.27
2022-09-15T13:55:10.435Z,20.97
2022-09-15T14:00:27.016Z,20.50
2022-09-15T14:02:59.128Z,20.84
2022-09-15T14:05:28.709Z,20.84
2022-09-15T14:08:01.260Z,20.77
2022-09-15T14:10:31.896Z,20.74
2022-09-15T14:13:01.860Z,20.47
2022-09-15T14:15:29.071Z,20.34
2022-09-15T14:17:56.154Z,20.18
2022-09-15T14:20:31.501Z,20.58
2022-09-15T14:22:59.432Z,20.85
2022-09-15T14:25:27.741Z,20.71
2022-09-15T14:27:55.097Z,20.49
2022-09-15T14:30:23.301Z,20.24
2022-09-15T14:32:54.892Z,19.94
2022-09-15T14:35:27.000Z,19.85
2022-09-15T14:37:57.003Z,20.21
2022-09-15T14:40:34.352Z,20.40
2022-09-15T14:43:01.447Z,20.27
2022-09-15T14:46:01.443Z,20.07
2022-09-15T14:48:28.405Z,19.86
2022-09-15T14:51:02.186Z,19.77
2022-09-15T14:53:30.689Z,19.88
2022-09-15T14:56:08.269Z,19.86
2022-09-15T14:59:06.990Z,19.63
2022-09-15T15:02:07.104Z,19.30
2022-09-15T15:04:40.986Z,19.09
2022-09-15T15:07:26.597Z,19.51
2022-09-15T15:10:01.781Z,19.46
2022-09-15T15:12:35.575Z,19.25
2022-09-15T15:15:03.309Z,19.07
2022-09-15T15:17:36.421Z,18.95
2022-09-15T15:20:09.685Z,19.23
2022-09-15T15:22:40.708Z,19.45
2022-09-15T15:25:41.983Z,19.40
2022-09-15T15:28:31.146Z,19.21
2022-09-15T15:31:13.783Z,19.06
2022-09-15T15:33:47.153Z,18.92
2022-09-15T15:36:14.108Z,19.08
2022-09-15T15:38:50.058Z,19.02
2022-09-15T15:41:27.961Z,18.69
2022-09-15T15:44:08.347Z,18.40
2022-09-15T15:47:01.792Z,18.31
2022-09-15T15:49:32.463Z,18.72
2022-09-15T15:52:00.419Z,18.75
2022-09-15T15:54:27.620Z,18.57
2022-09-15T15:56:55.006Z,18.32
2022-09-15T15:59:22.042Z,18.07
2022-09-15T16:01:51.411Z,17.83
2022-09-15T16:04:18.692Z,18.12
2022-09-15T16:06:45.742Z,18.28
2022-09-15T16:09:13.933Z,18.14
2022-09-15T16:11:42.427Z,17.92
2022-09-15T16:14:12.426Z,17.70
2022-09-15T16:16:39.745Z,17.59
2022-09-15T16:19:08.755Z,17.91
2022-09-15T16:21:39.358Z,18.15
2022-09-15T16:24:07.174Z,17.90
2022-09-15T16:26:38.091Z,17.74
2022-09-15T16:29:05.382Z,17.65
2022-09-15T16:31:32.973Z,18.01
2022-09-15T16:34:00.156Z,18.02
2022-09-15T16:36:27.162Z,17.96
2022-09-15T16:38:54.294Z,17.72
2022-09-15T16:41:28.378Z,17.52
2022-09-15T16:43:58.303Z,17.69
2022-09-15T16:46:25.478Z,17.92
2022-09-15T16:48:52.453Z,17.75
2022-09-15T16:51:27.949Z,17.56
2022-09-15T16:53:57.732Z,17.30
2022-09-15T16:56:24.892Z,17.05
2022-09-15T16:58:58.940Z,17.39
2022-09-15T17:01:27.167Z,17.45
2022-09-15T17:03:54.317Z,17.35
2022-09-15T17:06:22.443Z,17.13
2022-09-15T17:08:49.752Z,16.95
2022-09-15T17:11:20.964Z,17.12
2022-09-15T17:13:48.141Z,17.26
2022-09-15T17:16:16.660Z,17.16
2022-09-15T17:18:43.691Z,16.95
2022-09-15T17:21:11.952Z,16.78
2022-09-15T17:23:44.681Z,16.62
2022-09-15T17:26:20.282Z,16.90
2022-09-15T17:28:47.633Z,17.07
2022-09-15T17:31:18.714Z,16.94
2022-09-15T17:33:45.925Z,16.66
2022-09-15T17:36:13.183Z,16.46
2022-09-15T17:38:45.011Z,16.50
2022-09-15T17:41:17.426Z,16.96
2022-09-15T17:43:44.693Z,17.09
2022-09-15T17:46:12.098Z,16.87
2022-09-15T17:48:39.394Z,16.60
2022-09-15T17:51:07.439Z,16.15
2022-09-15T17:53:34.530Z,15.90
2022-09-15T17:56:01.950Z,16.17
2022-09-15T17:58:31.571Z,16.42
2022-09-15T18:00:58.733Z,16.31
2022-09-15T18:03:35.291Z,16.07
2022-09-15T18:06:05.348Z,15.85
2022-09-15T18:08:38.890Z,15.66
2022-09-15T18:11:06.674Z,15.99
2022-09-15T18:13:34.296Z,16.34
2022-09-15T18:16:06.767Z,16.31
2022-09-15T18:18:34.459Z,16.00
2022-09-15T18:21:01.503Z,15.73
2022-09-15T18:23:29.791Z,15.52
2022-09-15T18:25:57.647Z,15.84
2022-09-15T18:28:24.905Z,16.22
2022-09-15T18:30:52.018Z,16.13
2022-09-15T18:33:24.107Z,15.81
2022-09-15T18:35:53.036Z,15.50
2022-09-15T18:38:20.162Z,15.24
2022-09-15T18:40:49.225Z,15.46
2022-09-15T18:43:17.309Z,15.74
2022-09-15T18:45:44.468Z,15.65
2022-09-15T18:48:13.105Z,15.35
2022-09-15T18:50:41.419Z,15.10
2022-09-15T18:53:08.485Z,14.88
2022-09-15T18:55:35.567Z,15.25
2022-09-15T18:58:02.845Z,15.57
2022-09-15T19:00:29.851Z,15.57
2022-09-15T19:03:00.975Z,15.37
2022-09-15T19:05:28.944Z,15.16
2022-09-15T19:07:56.243Z,15.52
2022-09-15T19:10:26.759Z,15.79
2022-09-15T19:12:54.502Z,15.81
2022-09-15T19:15:24.497Z,15.66
2022-09-15T19:17:51.579Z,15.54
2022-09-15T19:20:18.497Z,15.83
2022-09-15T19:22:46.384Z,16.22
2022-09-15T19:25:13.725Z,16.16
2022-09-15T19:27:41.444Z,15.89
2022-09-15T19:30:10.274Z,15.68
2022-09-15T19:32:38.538Z,15.42
2022-09-15T19:35:06.858Z,15.78
2022-09-15T19:37:37.128Z,16.10
2022-09-15T19:40:08.345Z,16.00
2022-09-15T19:42:36.561Z,15.73
2022-09-15T19:45:03.923Z,15.49
2022-09-15T19:47:30.961Z,15.24
2022-09-15T19:49:58.229Z,15.64
2022-09-15T19:52:25.468Z,15.98
2022-09-15T19:54:52.620Z,15.80
2022-09-15T19:57:20.070Z,15.62
2022-09-15T19:59:47.197Z,15.39
2022-09-15T20:02:14.377Z,15.15
2022-09-15T20:04:41.832Z,15.45
2022-09-15T20:07:08.989Z,15.82
2022-09-15T20:09:36.335Z,15.80
2022-09-15T20:12:03.868Z,15.56
2022-09-15T20:14:31.568Z,15.27
2022-09-15T20:17:01.183Z,14.92
2022-09-15T20:19:29.783Z,14.67
2022-09-15T20:21:56.956Z,15.06
2022-09-15T20:24:24.354Z,15.50
2022-09-15T20:26:51.928Z,15.51
2022-09-15T20:29:19.676Z,15.30
2022-09-15T20:31:46.861Z,15.05
2022-09-15T20:34:13.887Z,14.79
2022-09-15T20:36:41.032Z,14.57
2022-09-15T20:39:10.715Z,14.98
2022-09-15T20:41:38.087Z,15.46
2022-09-15T20:44:09.304Z,15.47
2022-09-15T20:46:36.589Z,15.25
2022-09-15T20:49:04.661Z,14.99
2022-09-15T20:51:32.731Z,14.72
2022-09-15T20:54:01.009Z,14.50
2022-09-15T20:56:28.853Z,14.91
2022-09-15T20:58:57.366Z,15.38
2022-09-15T21:01:36.437Z,15.38
2022-09-15T21:04:04.082Z,15.14
2022-09-15T21:06:31.804Z,14.71
2022-09-15T21:08:58.772Z,14.54
2022-09-15T21:11:26.708Z,14.95
2022-09-15T21:13:54.676Z,15.41
2022-09-15T21:16:26.250Z,15.40
2022-09-15T21:18:53.646Z,15.17
2022-09-15T21:21:25.302Z,14.90
2022-09-15T21:23:54.339Z,14.63
2022-09-15T21:26:26.265Z,14.40
2022-09-15T21:28:54.499Z,14.80
2022-09-15T21:31:26.425Z,15.24
2022-09-15T21:33:54.120Z,15.23
2022-09-15T21:36:23.420Z,15.07
2022-09-15T21:38:51.685Z,14.83
2022-09-15T21:41:21.591Z,14.56
2022-09-15T21:43:49.271Z,14.31
2022-09-15T21:46:18.415Z,14.69
2022-09-15T21:48:47.401Z,15.21
2022-09-15T21:51:17.992Z,15.27
2022-09-15T21:53:51.170Z,15.12
2022-09-15T21:56:18.187Z,14.90
2022-09-15T21:58:45.091Z,14.64
2022-09-15T22:01:19.089Z,14.44
2022-09-15T22:03:51.631Z,14.91
2022-09-15T22:06:19.842Z,15.42
2022-09-15T22:08:46.964Z,15.44
2022-09-15T22:11:14.325Z,15.25
2022-09-15T22:13:43.331Z,14.92
2022-09-15T22:16:15.560Z,14.59
2022-09-15T22:18:42.706Z,14.36
2022-09-15T22:21:13.740Z,14.76
2022-09-15T22:23:40.922Z,15.23
2022-09-15T22:26:10.531Z,15.22
2022-09-15T22:28:37.999Z,14.98
2022-09-15T22:31:06.805Z,14.70
2022-09-15T22:33:34.366Z,14.41
2022-09-15T22:36:02.001Z,14.20
2022-09-15T22:38:30.002Z,14.54
2022-09-15T22:41:02.871Z,14.95
2022-09-15T22:43:30.210Z,14.83
2022-09-15T22:45:57.312Z,14.56
2022-09-15T22:48:24.508Z,14.29
2022-09-15T22:50:51.458Z,14.06
2022-09-15T22:53:18.377Z,14.37
2022-09-15T22:55:45.448Z,14.85
2022-09-15T22:58:12.315Z,14.92
2022-09-15T23:00:39.486Z,14.78
2022-09-15T23:03:06.840Z,14.57
2022-09-15T23:05:34.687Z,14.38
2022-09-15T23:08:01.913Z,14.72
2022-09-15T23:10:30.521Z,15.17
2022-09-15T23:13:00.930Z,15.20
2022-09-15T23:15:29.096Z,15.03
2022-09-15T23:17:56.065Z,14.82
2022-09-15T23:20:23.192Z,14.65
2022-09-15T23:22:50.269Z,14.50
2022-09-15T23:25:17.409Z,14.98
2022-09-15T23:27:44.443Z,15.54
2022-09-15T23:30:12.551Z,15.64
2022-09-15T23:32:39.559Z,15.50
2022-09-15T23:35:07.454Z,15.24
2022-09-15T23:37:34.469Z,15.00
2022-09-15T23:40:01.742Z,14.80
2022-09-15T23:42:28.836Z,15.15
2022-09-15T23:44:56.021Z,15.55
2022-09-15T23:47:22.998Z,15.57
2022-09-15T23:49:50.322Z,15.35
2022-09-15T23:52:17.308Z,15.10
2022-09-15T23:54:44.135Z,14.82
2022-09-15T23:57:11.982Z,14.55
2022-09-15T23:59:38.947Z,14.87
